Time;durP1;ratioP1;P1;durP2;ratioP2;P2;SDS_P1;SDS_P2;PMS_P1;PMS_P2;Temp;Humidity;BMP_temperature;BMP_pressure;BME280_temperature;BME280_humidity;BME280_pressure;Samples;Min_cycle;Max_cycle;Signal;HPM_P1;HPM_P2
2023/09/18 00:02:36;;;;;;;6.70;6.10;;;;;;;14.87;79.88;99956.11;215411;1276;141009;-72
2023/09/18 00:07:40;;;;;;;6.30;5.70;;;;;;;14.85;79.79;99954.06;215322;1276;142032;-73
2023/09/18 00:12:42;;;;;;;7.30;5.50;;;;;;;14.80;79.61;99947.63;214677;1276;140943;-69
2023/09/18 00:17:46;;;;;;;5.70;5.00;;;;;;;14.77;79.81;99949.01;215929;1276;139843;-71
2023/09/18 00:22:50;;;;;;;8.60;6.00;;;;;;;14.76;79.93;99944.59;215686;1276;142196;-70
2023/09/18 00:27:53;;;;;;;10.50;6.00;;;;;;;14.76;80.37;99940.30;215028;1276;140663;-70
2023/09/18 00:32:57;;;;;;;7.00;6.00;;;;;;;14.78;80.58;99937.36;215167;1277;142883;-70
2023/09/18 00:38:03;;;;;;;6.50;5.70;;;;;;;14.76;80.45;99938.80;214974;1276;140178;-71
2023/09/18 00:43:07;;;;;;;7.10;6.10;;;;;;;14.70;80.27;99944.44;217327;1275;141037;-71
2023/09/18 00:48:12;;;;;;;7.80;6.30;;;;;;;14.61;80.20;99947.60;217079;1275;140124;-71
2023/09/18 00:53:23;;;;;;;6.80;5.90;;;;;;;14.56;80.15;99945.58;215908;1276;141164;-71
2023/09/18 00:58:27;;;;;;;5.20;4.70;;;;;;;14.48;80.12;99944.59;216023;1276;140761;-72
2023/09/18 01:03:30;;;;;;;8.40;5.80;;;;;;;14.39;80.55;99939.60;215962;1277;139910;-73
2023/09/18 01:08:34;;;;;;;10.00;6.40;;;;;;;14.39;80.94;99942.15;215399;1277;140143;-68
2023/09/18 01:13:55;;;;;;;9.40;6.70;;;;;;;14.42;81.22;99933.89;215634;1276;140775;-73
2023/09/18 01:18:59;;;;;;;6.10;5.50;;;;;;;14.45;81.34;99930.89;216091;1274;141035;-75
2023/09/18 01:24:02;;;;;;;6.40;5.70;;;;;;;14.46;81.31;99932.86;215960;1279;139564;-79
2023/09/18 01:29:05;;;;;;;5.70;5.10;;;;;;;14.39;80.91;99934.19;214980;1276;141156;-72
2023/09/18 01:34:08;;;;;;;11.20;6.20;;;;;;;14.35;81.22;99933.67;215606;1276;141019;-77
2023/09/18 01:39:15;;;;;;;8.60;7.00;;;;;;;14.32;81.12;99927.52;215377;1277;140209;-73
2023/09/18 01:44:19;;;;;;;7.80;5.80;;;;;;;14.30;81.26;99927.61;214994;1276;140079;-71
2023/09/18 01:49:39;;;;;;;7.50;5.80;;;;;;;14.28;81.43;99927.86;214916;1279;140039;-71
2023/09/18 01:54:42;;;;;;;6.10;5.60;;;;;;;14.22;81.29;99926.77;215109;1276;140342;-70
2023/09/18 01:59:46;;;;;;;7.50;5.60;;;;;;;14.18;81.56;99926.48;214908;1276;141106;-70
2023/09/18 02:04:50;;;;;;;7.40;5.60;;;;;;;14.09;81.25;99924.28;215558;1277;140868;-70
2023/09/18 02:10:12;;;;;;;6.90;5.20;;;;;;;14.05;81.47;99926.94;214959;1276;140547;-75
2023/09/18 02:15:17;;;;;;;6.20;5.70;;;;;;;14.02;81.59;99922.90;214983;1279;246623;-73
2023/09/18 02:20:20;;;;;;;6.30;5.70;;;;;;;14.00;81.64;99919.02;216255;1278;140252;-72
2023/09/18 02:25:24;;;;;;;6.10;5.60;;;;;;;13.96;81.85;99908.40;214800;1276;140579;-69
2023/09/18 02:30:28;;;;;;;6.50;5.30;;;;;;;13.96;81.91;99913.92;216214;1276;141134;-70
2023/09/18 02:35:31;;;;;;;7.90;5.10;;;;;;;13.99;82.07;99912.77;214884;1279;141634;-69
2023/09/18 02:40:35;;;;;;;6.50;5.20;;;;;;;13.95;81.76;99910.27;214582;1277;140083;-70
2023/09/18 02:45:39;;;;;;;6.60;5.00;;;;;;;13.87;81.93;99910.88;216713;1276;140662;-70
2023/09/18 02:50:44;;;;;;;7.50;5.40;;;;;;;13.76;81.93;99906.42;215150;1276;141145;-70
2023/09/18 02:55:50;;;;;;;7.10;6.50;;;;;;;13.68;82.30;99898.02;216031;1277;140250;-72
2023/09/18 03:00:54;;;;;;;17.00;7.00;;;;;;;13.64;82.45;99899.54;215126;1277;140927;-72
2023/09/18 03:06:03;;;;;;;8.60;6.70;;;;;;;13.63;82.41;99902.36;214931;1279;141380;-79
2023/09/18 03:11:14;;;;;;;8.80;6.20;;;;;;;13.62;82.56;99896.14;216166;1276;141060;-74
2023/09/18 03:16:17;;;;;;;7.50;6.70;;;;;;;13.57;82.44;99896.66;214657;1279;142550;-74
2023/09/18 03:21:20;;;;;;;7.40;6.30;;;;;;;13.52;82.64;99894.68;214653;1276;142193;-71
2023/09/18 03:26:22;;;;;;;11.60;6.20;;;;;;;13.54;83.01;99886.98;215334;1279;140620;-72
2023/09/18 03:31:29;;;;;;;8.30;6.60;;;;;;;13.53;83.36;99883.27;214576;1276;140802;-71
2023/09/18 03:36:35;;;;;;;6.90;6.30;;;;;;;13.50;82.96;99878.25;215618;1276;140211;-74
2023/09/18 03:41:38;;;;;;;7.00;6.00;;;;;;;13.45;82.98;99880.14;214943;1279;141688;-74
2023/09/18 03:46:41;;;;;;;10.90;7.80;;;;;;;13.41;82.87;99877.84;214689;1279;140203;-70
2023/09/18 03:51:45;;;;;;;7.40;6.80;;;;;;;13.36;82.87;99870.98;214642;1279;140904;-73
2023/09/18 03:56:49;;;;;;;7.30;6.60;;;;;;;13.33;83.36;99866.94;214579;1279;140278;-70
2023/09/18 04:01:53;;;;;;;7.60;5.70;;;;;;;13.31;83.18;99860.15;215310;1277;140093;-74
2023/09/18 04:06:57;;;;;;;5.40;5.00;;;;;;;13.28;83.15;99855.88;215187;1275;140407;-73
2023/09/18 04:12:02;;;;;;;7.60;6.50;;;;;;;13.23;83.02;99847.63;215428;1276;140452;-73
2023/09/18 04:17:06;;;;;;;12.40;7.90;;;;;;;13.20;83.15;99843.95;214705;1279;141454;-76
2023/09/18 04:22:10;;;;;;;7.80;7.10;;;;;;;13.22;83.43;99840.77;214852;1277;140245;-78
2023/09/18 04:27:14;;;;;;;9.60;7.50;;;;;;;13.27;83.65;99842.48;215986;1276;140842;-79
2023/09/18 04:32:17;;;;;;;10.30;8.10;;;;;;;13.33;83.93;99841.33;214748;1276;139778;-73
2023/09/18 04:37:21;;;;;;;10.00;8.50;;;;;;;13.40;84.45;99837.40;215440;1276;140361;-75
2023/09/18 04:42:24;;;;;;;8.00;7.30;;;;;;;13.58;85.75;99838.02;214891;1279;141210;-74
2023/09/18 04:47:27;;;;;;;9.20;8.10;;;;;;;13.72;86.16;99831.48;215144;1279;140132;-69
2023/09/18 04:52:30;;;;;;;10.10;8.30;;;;;;;13.90;86.79;99827.89;216321;1278;140622;-70
2023/09/18 04:57:34;;;;;;;10.60;8.50;;;;;;;14.09;87.41;99813.58;215672;1277;141459;-71
2023/09/18 05:02:36;;;;;;;10.40;8.80;;;;;;;14.25;87.12;99811.35;217836;1276;140938;-71
2023/09/18 05:07:40;;;;;;;10.20;8.70;;;;;;;14.42;87.49;99809.02;216241;1275;140159;-69
2023/09/18 05:12:44;;;;;;;11.50;8.70;;;;;;;14.59;87.54;99809.48;215583;1276;141974;-69
2023/09/18 05:17:52;;;;;;;10.10;8.70;;;;;;;14.76;87.72;99814.83;215723;1279;140316;-68
2023/09/18 05:23:01;;;;;;;14.30;9.10;;;;;;;14.95;87.81;99818.31;215030;1277;140361;-69
2023/09/18 05:28:05;;;;;;;10.40;9.10;;;;;;;15.12;87.86;99811.72;215689;1276;143104;-68
2023/09/18 05:33:09;;;;;;;9.10;7.80;;;;;;;15.30;87.79;99814.31;215782;1276;140387;-70
2023/09/18 05:38:13;;;;;;;11.80;8.70;;;;;;;15.49;87.78;99811.70;214844;1277;140553;-67
2023/09/18 05:43:17;;;;;;;10.30;9.30;;;;;;;15.68;87.79;99813.09;214852;1276;140784;-72
2023/09/18 05:48:21;;;;;;;10.60;9.20;;;;;;;15.87;87.82;99808.23;215599;1279;140875;-70
2023/09/18 05:53:25;;;;;;;14.00;9.20;;;;;;;16.03;87.72;99802.87;214976;1280;140810;-68
2023/09/18 05:58:31;;;;;;;9.70;7.70;;;;;;;16.15;87.46;99801.20;214782;1276;140856;-68
2023/09/18 06:03:36;;;;;;;11.70;10.50;;;;;;;16.31;87.36;99792.30;214921;1279;140037;-69
2023/09/18 06:08:41;;;;;;;10.90;9.70;;;;;;;16.51;87.54;99789.97;214674;1277;141194;-67
2023/09/18 06:13:44;;;;;;;11.50;10.40;;;;;;;16.78;87.60;99790.20;215342;1276;141135;-67
2023/09/18 06:18:48;;;;;;;10.50;8.70;;;;;;;17.05;87.47;99787.84;215511;1279;141774;-69
2023/09/18 06:23:51;;;;;;;10.60;9.50;;;;;;;17.26;87.04;99782.34;215563;1276;140500;-70
2023/09/18 06:28:55;;;;;;;10.70;9.70;;;;;;;17.49;86.63;99782.16;214990;1280;140719;-73
2023/09/18 06:33:59;;;;;;;14.30;9.90;;;;;;;17.77;86.38;99782.98;215748;1276;141217;-70
2023/09/18 06:39:04;;;;;;;14.20;10.00;;;;;;;18.07;86.07;99784.09;215606;1276;141697;-72
2023/09/18 06:44:10;;;;;;;11.30;10.20;;;;;;;18.34;85.77;99779.73;216523;1276;141028;-71
2023/09/18 06:49:13;;;;;;;11.50;10.40;;;;;;;18.76;85.00;99775.70;214786;1279;140979;-80
2023/09/18 06:54:17;;;;;;;10.80;9.70;;;;;;;19.34;84.36;99766.67;214673;1277;141232;-72
2023/09/18 06:59:20;;;;;;;12.50;9.90;;;;;;;20.11;83.13;99759.86;217035;1275;141731;-72
2023/09/18 07:04:23;;;;;;;10.90;9.50;;;;;;;21.33;82.19;99761.07;215429;1276;140407;-70
2023/09/18 07:09:27;;;;;;;10.50;9.30;;;;;;;22.30;80.15;99775.66;214843;1279;140763;-70
2023/09/18 07:14:29;;;;;;;10.60;9.60;;;;;;;23.46;78.62;99774.52;214869;1279;142333;-69
2023/09/18 07:19:33;;;;;;;11.10;10.00;;;;;;;24.52;76.05;99772.88;215614;1277;141409;-71
2023/09/18 07:24:40;;;;;;;10.80;9.30;;;;;;;25.44;74.14;99779.14;215199;1275;140180;-69
2023/09/18 07:29:49;;;;;;;10.50;9.50;;;;;;;26.20;72.22;99780.30;215818;1276;139583;-68
2023/09/18 07:34:54;;;;;;;8.90;8.10;;;;;;;26.58;70.63;99771.62;214500;1276;822776;-68
2023/09/18 07:39:59;;;;;;;11.20;9.00;;;;;;;26.92;69.14;99760.53;215168;1276;139512;-70
2023/09/18 07:45:04;;;;;;;10.10;9.20;;;;;;;27.16;67.85;99761.05;215090;1277;140085;-70
2023/09/18 07:50:08;;;;;;;12.80;11.50;;;;;;;27.24;66.42;99759.11;215457;1276;139701;-70
2023/09/18 07:55:11;;;;;;;11.70;10.50;;;;;;;27.05;65.89;99748.91;215244;1276;141042;-70
2023/09/18 08:00:15;;;;;;;11.80;9.80;;;;;;;27.02;64.92;99748.27;214801;1279;139535;-71
2023/09/18 08:05:19;;;;;;;10.10;8.20;;;;;;;27.00;64.72;99745.16;215018;1275;139675;-70
2023/09/18 08:10:23;;;;;;;12.30;9.60;;;;;;;27.16;64.76;99740.34;215683;1275;139351;-70
2023/09/18 08:15:27;;;;;;;10.50;9.60;;;;;;;27.31;64.17;99742.34;214892;1277;140509;-70
2023/09/18 08:20:32;;;;;;;12.80;11.10;;;;;;;27.21;62.33;99737.20;215539;1278;140611;-71
2023/09/18 08:25:36;;;;;;;12.80;11.50;;;;;;;26.90;61.69;99733.59;215763;1276;150593;-71
2023/09/18 08:30:40;;;;;;;11.60;10.30;;;;;;;26.84;61.53;99730.04;215091;1275;139845;-69
2023/09/18 08:35:46;;;;;;;13.70;10.30;;;;;;;26.78;61.18;99728.99;215619;1276;140687;-67
2023/09/18 08:40:53;;;;;;;12.70;11.60;;;;;;;26.93;61.66;99725.25;214971;1276;139788;-68
2023/09/18 08:46:01;;;;;;;12.60;11.40;;;;;;;27.29;61.43;99718.77;216444;1275;139805;-72
2023/09/18 08:51:06;;;;;;;13.10;11.80;;;;;;;27.46;61.17;99708.06;216824;1275;139646;-72
2023/09/18 08:56:10;;;;;;;13.30;12.00;;;;;;;27.70;60.25;99709.77;214946;1277;140284;-70
2023/09/18 09:01:14;;;;;;;13.60;12.20;;;;;;;27.83;60.13;99710.30;215314;1278;140613;-70
2023/09/18 09:06:18;;;;;;;15.00;13.30;;;;;;;27.96;59.21;99705.39;215821;1275;139998;-70
2023/09/18 09:11:23;;;;;;;14.30;12.90;;;;;;;27.96;58.36;99699.90;214977;1274;140141;-70
2023/09/18 09:16:27;;;;;;;13.50;12.30;;;;;;;28.07;58.33;99691.74;215770;1276;139908;-70
2023/09/18 09:21:44;;;;;;;13.80;12.10;;;;;;;28.18;57.76;99687.56;215346;1276;140114;-70
2023/09/18 09:26:58;;;;;;;14.50;13.20;;;;;;;28.23;56.70;99684.98;214826;1276;140053;-70
2023/09/18 09:32:17;;;;;;;15.00;13.70;;;;;;;28.14;55.70;99679.16;214798;1278;139475;-71
2023/09/18 09:37:31;;;;;;;14.20;13.00;;;;;;;28.16;55.82;99673.02;215581;1276;141154;-69
2023/09/18 09:42:40;;;;;;;15.30;12.20;;;;;;;28.26;55.05;99669.46;215543;1276;141548;-69
2023/09/18 09:47:44;;;;;;;15.60;13.20;;;;;;;28.33;54.99;99667.69;215281;1275;140186;-69
2023/09/18 09:52:49;;;;;;;13.20;12.10;;;;;;;28.43;54.17;99663.77;215472;1275;139922;-70
2023/09/18 09:57:59;;;;;;;17.10;13.30;;;;;;;28.32;53.57;99655.43;215742;1275;140426;-70
2023/09/18 10:03:08;;;;;;;15.80;14.30;;;;;;;28.45;54.31;99661.55;216015;1275;139893;-69
2023/09/18 10:08:16;;;;;;;15.00;13.60;;;;;;;28.64;53.51;99650.60;216184;1276;140873;-70
2023/09/18 10:13:40;;;;;;;13.20;12.00;;;;;;;28.67;52.98;99644.66;216054;1275;140836;-71
2023/09/18 10:19:04;;;;;;;14.40;13.00;;;;;;;28.82;53.34;99639.11;216731;1275;140107;-69
2023/09/18 10:24:30;;;;;;;15.50;14.00;;;;;;;29.10;52.30;99630.86;217143;1276;139454;-70
2023/09/18 10:29:36;;;;;;;16.20;14.20;;;;;;;29.05;50.83;99621.98;217102;1275;141339;-71
2023/09/18 10:34:41;;;;;;;13.70;12.30;;;;;;;28.55;50.78;99612.58;216798;1276;139949;-70
2023/09/18 10:39:48;;;;;;;15.40;14.10;;;;;;;28.75;51.26;99610.68;216590;1275;139430;-71
2023/09/18 10:44:51;;;;;;;17.20;15.40;;;;;;;28.91;51.17;99606.57;216779;1275;142246;-71
2023/09/18 10:49:56;;;;;;;15.20;13.50;;;;;;;29.02;51.12;99599.01;215305;1279;140554;-69
2023/09/18 10:55:00;;;;;;;14.00;12.60;;;;;;;29.35;51.05;99590.10;215501;1276;139592;-70
2023/09/18 11:00:13;;;;;;;17.20;15.50;;;;;;;29.17;50.10;99593.81;215538;1276;140024;-71
2023/09/18 11:05:30;;;;;;;17.10;14.00;;;;;;;29.25;49.12;99586.77;215630;1276;150726;-69
2023/09/18 11:10:37;;;;;;;15.30;14.00;;;;;;;28.76;49.03;99587.80;215925;1276;140441;-70
2023/09/18 11:15:40;;;;;;;16.90;15.50;;;;;;;28.52;49.78;99586.17;214815;1276;140784;-69
2023/09/18 11:20:43;;;;;;;15.20;13.70;;;;;;;28.61;49.60;99585.05;215452;1275;140050;-69
2023/09/18 11:25:52;;;;;;;18.90;14.50;;;;;;;28.29;49.20;99578.77;215124;1279;140387;-69
2023/09/18 11:31:01;;;;;;;17.30;15.30;;;;;;;28.21;49.35;99574.03;214758;1277;139817;-70
2023/09/18 11:36:14;;;;;;;15.40;14.00;;;;;;;27.99;49.17;99572.55;214795;1276;140715;-70
2023/09/18 11:41:27;;;;;;;16.80;15.20;;;;;;;28.06;49.21;99562.70;214782;1276;140770;-69
2023/09/18 11:46:33;;;;;;;16.80;15.10;;;;;;;28.21;49.31;99558.42;215043;1277;141275;-67
2023/09/18 11:51:37;;;;;;;16.20;14.50;;;;;;;28.18;48.66;99554.69;215199;1276;141299;-69
2023/09/18 11:56:41;;;;;;;14.50;13.10;;;;;;;28.00;48.33;99554.23;214881;1279;139552;-73
2023/09/18 12:01:52;;;;;;;15.60;14.20;;;;;;;28.06;48.31;99544.05;214786;1277;139803;-73
2023/09/18 12:06:55;;;;;;;14.40;13.00;;;;;;;28.33;48.57;99542.11;214687;1276;139574;-73
2023/09/18 12:12:03;;;;;;;13.00;12.00;;;;;;;28.53;47.60;99540.83;215409;1276;140467;-70
2023/09/18 12:17:07;;;;;;;14.60;13.40;;;;;;;28.65;47.33;99527.85;215342;1276;139970;-67
2023/09/18 12:22:12;;;;;;;13.50;12.30;;;;;;;28.74;46.90;99518.79;214942;1279;139448;-68
2023/09/18 12:27:16;;;;;;;14.10;12.80;;;;;;;28.66;46.61;99524.51;215012;1276;139673;-68
2023/09/18 12:32:19;;;;;;;13.90;12.70;;;;;;;28.57;46.33;99514.27;215043;1279;140359;-71
2023/09/18 12:37:23;;;;;;;14.10;12.60;;;;;;;28.64;46.29;99505.97;215255;1276;139900;-68
2023/09/18 12:42:27;;;;;;;12.30;11.30;;;;;;;28.74;46.17;99507.27;215546;1277;141159;-68
2023/09/18 12:47:30;;;;;;;13.40;12.20;;;;;;;28.70;45.61;99496.54;216190;1276;139580;-70
2023/09/18 12:52:33;;;;;;;15.00;13.70;;;;;;;28.65;45.58;99494.08;214682;1275;140097;-72
2023/09/18 12:57:40;;;;;;;15.10;12.50;;;;;;;28.46;45.35;99485.05;215080;1276;140698;-69
2023/09/18 13:02:45;;;;;;;16.20;13.90;;;;;;;28.47;45.37;99480.63;214602;1275;139936;-69
2023/09/18 13:07:50;;;;;;;20.60;12.20;;;;;;;28.58;45.37;99472.92;216010;1275;141364;-70
2023/09/18 13:12:55;;;;;;;13.20;12.00;;;;;;;28.69;45.63;99458.19;215094;1276;140796;-71
2023/09/18 13:18:08;;;;;;;12.70;11.50;;;;;;;28.72;45.13;99464.89;214672;1279;140807;-71
2023/09/18 13:23:12;;;;;;;14.30;13.00;;;;;;;28.50;45.26;99462.80;215408;1275;140737;-69
2023/09/18 13:28:16;;;;;;;14.80;13.50;;;;;;;28.39;45.73;99459.55;214589;1275;140147;-70
2023/09/18 13:33:20;;;;;;;;;;;;;;;28.41;45.43;99451.68;215143;1276;140968;-70
2023/09/18 13:38:23;;;;;;;14.40;12.40;;;;;;;28.43;45.44;99442.71;215483;1276;126572;-71
2023/09/18 13:43:34;;;;;;;12.10;11.10;;;;;;;28.43;45.17;99443.95;214688;1276;141415;-74
2023/09/18 13:48:38;;;;;;;13.40;12.10;;;;;;;28.40;44.92;99437.33;215256;1276;140247;-75
2023/09/18 13:53:42;;;;;;;9.80;8.80;;;;;;;28.40;44.86;99431.30;215620;1276;139452;-73
2023/09/18 13:58:48;;;;;;;11.20;10.10;;;;;;;28.38;44.59;99423.96;215522;1276;139990;-71
2023/09/18 14:03:53;;;;;;;12.50;11.20;;;;;;;28.23;43.79;99413.92;215017;1275;140993;-73
2023/09/18 14:08:56;;;;;;;98.80;42.40;;;;;;;28.07;43.30;99402.77;215686;1275;139446;-74
2023/09/18 14:14:00;;;;;;;17.50;11.90;;;;;;;27.87;43.48;99403.73;216885;1276;139799;-72
2023/09/18 14:19:05;;;;;;;11.70;10.70;;;;;;;27.69;43.77;99398.74;215144;1276;140675;-76
2023/09/18 14:24:09;;;;;;;10.60;9.60;;;;;;;27.66;44.03;99398.50;217139;1275;139340;-76
2023/09/18 14:29:11;;;;;;;11.40;10.30;;;;;;;27.67;43.82;99394.84;217201;1275;153419;-74
2023/09/18 14:34:13;;;;;;;9.50;8.70;;;;;;;27.62;43.37;99390.83;215987;1276;140387;-74
2023/09/18 14:39:16;;;;;;;9.60;8.70;;;;;;;27.54;43.25;99386.45;215818;1275;139658;-75
2023/09/18 14:44:22;;;;;;;10.10;9.10;;;;;;;27.42;43.30;99387.14;214954;1276;140589;-75
2023/09/18 14:49:27;;;;;;;11.30;10.10;;;;;;;27.24;43.11;99383.58;215205;1275;140747;-72
2023/09/18 14:54:30;;;;;;;9.70;8.90;;;;;;;27.09;43.19;99381.48;215738;1276;139708;-76
2023/09/18 14:59:34;;;;;;;12.30;11.30;;;;;;;26.99;43.31;99376.44;214714;1279;140498;-75
2023/09/18 15:04:45;;;;;;;12.20;10.70;;;;;;;26.83;43.57;99367.77;215897;1276;139838;-75
2023/09/18 15:09:47;;;;;;;15.10;10.40;;;;;;;26.76;43.85;99359.52;214561;1276;140814;-72
2023/09/18 15:14:53;;;;;;;9.70;8.80;;;;;;;26.75;43.41;99350.48;214710;1276;142006;-76
2023/09/18 15:19:57;;;;;;;10.20;8.40;;;;;;;26.73;43.79;99350.45;215513;1275;142457;-74
2023/09/18 15:25:01;;;;;;;10.00;9.20;;;;;;;26.72;44.29;99350.58;214680;1276;140570;-73
2023/09/18 15:30:07;;;;;;;10.80;9.90;;;;;;;26.64;44.77;99353.27;214836;1279;140210;-73
2023/09/18 15:35:13;;;;;;;12.20;11.20;;;;;;;26.56;45.02;99355.27;214850;1276;140151;-72
2023/09/18 15:40:21;;;;;;;12.10;10.90;;;;;;;26.42;45.26;99343.55;214649;1276;140163;-75
2023/09/18 15:45:25;;;;;;;;;;;;;;;26.23;45.90;99335.27;215258;1276;139974;-74
2023/09/18 15:50:31;;;;;;;14.80;11.50;;;;;;;26.07;46.31;99330.98;215466;1276;126487;-73
2023/09/18 15:55:42;;;;;;;11.60;10.60;;;;;;;25.97;46.76;99325.89;215630;1276;140721;-75
2023/09/18 16:00:48;;;;;;;16.90;12.60;;;;;;;25.73;47.12;99321.98;214905;1275;140522;-73
2023/09/18 16:05:53;;;;;;;16.60;11.30;;;;;;;25.52;47.23;99317.98;214881;1278;139703;-73
2023/09/18 16:10:59;;;;;;;13.10;11.90;;;;;;;25.37;47.70;99319.30;214755;1276;140127;-73
2023/09/18 16:16:05;;;;;;;22.20;13.60;;;;;;;25.15;49.04;99318.08;215374;1276;141161;-74
2023/09/18 16:21:09;;;;;;;15.70;11.80;;;;;;;24.88;49.93;99307.38;215400;1276;142478;-77
2023/09/18 16:26:13;;;;;;;17.30;13.60;;;;;;;24.59;50.54;99307.89;215632;1276;140082;-71
2023/09/18 16:31:17;;;;;;;57.50;24.20;;;;;;;24.29;51.23;99300.75;216777;1276;140589;-74
2023/09/18 16:36:21;;;;;;;15.60;14.00;;;;;;;24.03;52.08;99296.88;215221;1276;141182;-72
2023/09/18 16:41:25;;;;;;;17.50;13.00;;;;;;;23.82;52.60;99297.13;216124;1275;140523;-72
2023/09/18 16:46:28;;;;;;;14.90;13.10;;;;;;;23.59;53.07;99295.86;215493;1276;139756;-70
2023/09/18 16:51:32;;;;;;;23.50;14.60;;;;;;;23.35;53.73;99293.92;215520;1276;139931;-73
2023/09/18 16:56:35;;;;;;;17.20;13.10;;;;;;;23.13;54.32;99286.16;214941;1276;139946;-71
2023/09/18 17:01:39;;;;;;;13.90;12.70;;;;;;;22.90;54.64;99284.32;215829;1276;139839;-74
2023/09/18 17:06:44;;;;;;;14.80;12.10;;;;;;;22.68;55.04;99282.66;214974;1278;139462;-74
2023/09/18 17:11:48;;;;;;;28.70;14.90;;;;;;;22.48;55.57;99282.63;214940;1279;140628;-69
2023/09/18 17:16:52;;;;;;;23.30;14.20;;;;;;;22.31;55.99;99281.77;215538;1276;141602;-70
2023/09/18 17:22:00;;;;;;;19.00;12.00;;;;;;;22.15;56.32;99278.42;214805;1277;140540;-82
2023/09/18 17:27:08;;;;;;;13.40;12.10;;;;;;;22.00;56.52;99280.16;214836;1276;140760;-76
2023/09/18 17:32:11;;;;;;;17.30;13.10;;;;;;;21.86;56.97;99280.16;215286;1276;139976;-75
2023/09/18 17:37:16;;;;;;;21.00;13.80;;;;;;;21.72;57.77;99280.10;215449;1276;140164;-75
2023/09/18 17:42:20;;;;;;;14.20;12.80;;;;;;;21.57;58.52;99282.98;215035;1276;139474;-71
2023/09/18 17:47:22;;;;;;;13.70;12.40;;;;;;;21.42;59.00;99283.43;215260;1279;140516;-72
2023/09/18 17:52:26;;;;;;;13.30;12.00;;;;;;;21.30;59.19;99278.05;215405;1276;140529;-74
2023/09/18 17:57:29;;;;;;;14.30;12.80;;;;;;;21.19;59.34;99280.17;215134;1277;140246;-75
2023/09/18 18:02:41;;;;;;;22.70;16.10;;;;;;;21.10;59.82;99274.95;215114;1276;141388;-75
2023/09/18 18:07:47;;;;;;;17.50;13.70;;;;;;;20.99;60.18;99280.22;214702;1280;140686;-71
2023/09/18 18:12:49;;;;;;;15.60;12.80;;;;;;;20.88;60.32;99283.23;215049;1276;140304;-71
2023/09/18 18:17:52;;;;;;;15.10;13.50;;;;;;;20.73;60.72;99285.64;215462;1275;140999;-73
2023/09/18 18:22:57;;;;;;;14.70;13.10;;;;;;;20.61;61.46;99280.39;216562;1275;142167;-72
2023/09/18 18:27:59;;;;;;;21.30;15.00;;;;;;;20.49;61.75;99280.11;216246;1276;140770;-76
2023/09/18 18:33:03;;;;;;;17.70;13.50;;;;;;;20.39;61.93;99275.35;216011;1276;140244;-73
2023/09/18 18:38:06;;;;;;;18.10;12.30;;;;;;;20.29;62.25;99273.02;214993;1276;140593;-74
2023/09/18 18:43:15;;;;;;;14.80;13.30;;;;;;;20.19;62.58;99265.48;215345;1276;143249;-72
2023/09/18 18:48:18;;;;;;;15.60;13.70;;;;;;;20.09;62.57;99257.04;214907;1278;141199;-72
2023/09/18 18:53:22;;;;;;;16.70;15.10;;;;;;;20.00;62.80;99261.38;215405;1276;140260;-73
2023/09/18 18:58:27;;;;;;;16.20;14.80;;;;;;;19.86;62.77;99258.84;215265;1276;152215;-75
2023/09/18 19:03:34;;;;;;;18.00;14.60;;;;;;;19.72;63.16;99257.71;215174;1276;140583;-71
2023/09/18 19:08:40;;;;;;;17.00;14.90;;;;;;;19.56;63.60;99255.26;215103;1276;141204;-72
2023/09/18 19:13:47;;;;;;;18.90;15.20;;;;;;;19.40;64.06;99250.27;215547;1276;141396;-72
2023/09/18 19:18:51;;;;;;;;;;;;;;;19.28;64.55;99245.16;214943;1279;140447;-71
2023/09/18 19:23:55;;;;;;;22.00;16.10;;;;;;;19.17;65.06;99236.29;215549;1276;126640;-69
2023/09/18 19:28:59;;;;;;;23.10;15.90;;;;;;;19.08;65.38;99237.87;215157;1277;141395;-72
2023/09/18 19:34:04;;;;;;;20.40;15.70;;;;;;;19.02;65.67;99230.63;214961;1275;828624;-69
2023/09/18 19:39:08;;;;;;;27.30;15.60;;;;;;;18.96;65.84;99233.20;214941;1279;140300;-73
2023/09/18 19:44:15;;;;;;;;;;;;;;;18.90;66.21;99229.40;215282;1276;140177;-74
2023/09/18 19:49:18;;;;;;;26.90;12.90;;;;;;;18.79;66.44;99227.95;217109;1276;126990;-73
2023/09/18 19:54:24;;;;;;;47.10;18.10;;;;;;;18.63;66.70;99222.97;215253;1276;140021;-72
2023/09/18 19:59:27;;;;;;;17.90;15.30;;;;;;;18.55;67.01;99220.08;215118;1278;140989;-68
2023/09/18 20:04:33;;;;;;;19.50;15.30;;;;;;;18.45;67.35;99217.70;215879;1276;141858;-74
2023/09/18 20:09:36;;;;;;;25.20;14.60;;;;;;;18.46;67.61;99217.42;214775;1276;141110;-75
2023/09/18 20:14:41;;;;;;;20.10;13.90;;;;;;;18.48;67.82;99215.02;216464;1276;140726;-70
2023/09/18 20:19:46;;;;;;;16.40;14.60;;;;;;;18.50;67.93;99213.84;215303;1276;140870;-69
2023/09/18 20:24:51;;;;;;;19.10;16.00;;;;;;;18.52;67.89;99212.08;216597;1276;141605;-73
2023/09/18 20:29:54;;;;;;;17.00;14.60;;;;;;;18.55;68.01;99208.14;216043;1276;141778;-68
2023/09/18 20:34:57;;;;;;;20.50;14.20;;;;;;;18.57;68.10;99206.01;215542;1276;141758;-68
2023/09/18 20:40:00;;;;;;;19.60;14.50;;;;;;;18.59;68.22;99204.26;216528;1276;141752;-74
2023/09/18 20:45:04;;;;;;;19.60;17.40;;;;;;;18.59;68.34;99197.60;215836;1276;140757;-70
2023/09/18 20:50:11;;;;;;;17.10;14.10;;;;;;;18.57;68.37;99196.13;215165;1277;141060;-72
2023/09/18 20:55:15;;;;;;;;;;;;;;;18.54;68.53;99196.35;215818;1277;140478;-69
2023/09/18 21:00:19;;;;;;;22.60;16.30;;;;;;;18.49;68.61;99190.00;215529;1276;127277;-78
2023/09/18 21:05:22;;;;;;;23.70;16.60;;;;;;;18.50;68.81;99187.40;215361;1276;141447;-82
2023/09/18 21:10:25;;;;;;;23.10;17.10;;;;;;;18.46;68.87;99183.70;215622;1279;140843;-79
2023/09/18 21:15:35;;;;;;;24.30;17.00;;;;;;;18.44;69.13;99180.05;214691;1276;141110;-70
2023/09/18 21:20:41;;;;;;;17.40;15.30;;;;;;;18.41;69.27;99177.36;215224;1275;141358;-80
2023/09/18 21:25:51;;;;;;;25.60;16.10;;;;;;;18.38;69.32;99177.73;214834;1279;141345;-82
2023/09/18 21:30:53;;;;;;;20.10;15.60;;;;;;;18.35;69.39;99176.31;214915;1278;140836;-81
2023/09/18 21:35:56;;;;;;;16.40;14.70;;;;;;;18.35;69.50;99172.99;214698;1277;140565;-75
2023/09/18 21:40:59;;;;;;;15.10;13.20;;;;;;;18.37;69.68;99171.08;215015;1276;140538;-69
2023/09/18 21:46:02;;;;;;;21.00;16.00;;;;;;;18.34;69.75;99171.26;214485;1279;140141;-75
2023/09/18 21:51:10;;;;;;;18.40;16.20;;;;;;;18.30;69.85;99165.24;214413;1276;140936;-80
2023/09/18 21:56:13;;;;;;;15.80;14.00;;;;;;;18.27;70.17;99158.44;214694;1279;141320;-80
2023/09/18 22:01:16;;;;;;;16.40;14.60;;;;;;;18.25;70.15;99161.17;214477;1276;140723;-78
2023/09/18 22:06:20;;;;;;;19.40;14.40;;;;;;;18.25;70.34;99156.64;214852;1279;141397;-79
2023/09/18 22:11:23;;;;;;;25.00;15.50;;;;;;;18.25;70.57;99150.48;214642;1279;141402;-79
2023/09/18 22:16:26;;;;;;;18.10;14.60;;;;;;;18.27;70.59;99141.81;214407;1279;141057;-77
2023/09/18 22:21:29;;;;;;;16.40;13.90;;;;;;;18.31;70.71;99136.30;215184;1276;140253;-77
2023/09/18 22:26:31;;;;;;;17.30;13.50;;;;;;;18.32;70.63;99129.76;217274;1279;141544;-77
2023/09/18 22:31:34;;;;;;;21.10;14.10;;;;;;;18.31;70.74;99130.15;215957;1279;140923;-81
2023/09/18 22:36:39;;;;;;;23.80;14.80;;;;;;;18.31;70.76;99122.44;215524;1276;140147;-79
2023/09/18 22:41:54;;;;;;;18.00;13.30;;;;;;;18.31;70.87;99122.12;215081;1278;140780;-76
2023/09/18 22:47:34;;;;;;;21.50;15.70;;;;;;;18.26;70.90;99127.33;215012;1276;141326;-76
2023/09/18 22:52:46;;;;;;;16.00;14.30;;;;;;;18.19;71.02;99119.20;215425;1279;140261;-76
2023/09/18 22:57:52;;;;;;;22.20;15.90;;;;;;;18.12;71.11;99118.36;214945;1276;140451;-76
2023/09/18 23:03:01;;;;;;;16.80;14.10;;;;;;;18.04;71.30;99110.91;215522;1277;140038;-78